Time;durP1;ratioP1;P1;durP2;ratioP2;P2;SDS_P1;SDS_P2;PMS_P1;PMS_P2;Temp;Humidity;BMP_temperature;BMP_pressure;BME280_temperature;BME280_humidity;BME280_pressure;Samples;Min_cycle;Max_cycle;Signal;HPM_P1;HPM_P2
2021/11/05 00:01:34;;;;;;;25.03;19.40;;;9.90;99.90;;;;;;5093810;28;20558;-80
2021/11/05 00:04:00;;;;;;;26.53;19.63;;;9.90;99.90;;;;;;5075552;28;20602;-80
2021/11/05 00:06:26;;;;;;;23.13;18.37;;;9.90;99.90;;;;;;5100023;28;20639;-80
2021/11/05 00:08:51;;;;;;;22.43;18.57;;;9.90;99.90;;;;;;5074534;28;20175;-78
2021/11/05 00:11:17;;;;;;;22.67;18.80;;;9.90;99.90;;;;;;5074117;28;20661;-78
2021/11/05 00:13:43;;;;;;;22.10;16.80;;;9.90;99.90;;;;;;5092525;28;20191;-79
2021/11/05 00:16:08;;;;;;;23.67;18.87;;;9.90;99.90;;;;;;5079060;28;20193;-79
2021/11/05 00:18:34;;;;;;;21.10;17.10;;;10.00;99.90;;;;;;5093053;28;20199;-78
2021/11/05 00:21:01;;;;;;;24.47;18.60;;;10.00;99.90;;;;;;5092343;28;20187;-79
2021/11/05 00:23:27;;;;;;;19.17;16.63;;;10.00;99.90;;;;;;5092519;28;20188;-78
2021/11/05 00:25:53;;;;;;;22.63;18.67;;;10.10;99.90;;;;;;5091699;28;20182;-79
2021/11/05 00:28:18;;;;;;;22.60;18.03;;;10.10;99.90;;;;;;5074105;28;20168;-79
2021/11/05 00:30:45;;;;;;;19.20;16.03;;;10.20;99.90;;;;;;5073885;28;20211;-79
2021/11/05 00:33:11;;;;;;;24.10;19.02;;;10.20;99.90;;;;;;5091929;28;20192;-78
2021/11/05 00:35:37;;;;;;;26.17;22.10;;;10.20;99.90;;;;;;5057385;28;20176;-78
2021/11/05 00:38:02;;;;;;;23.37;19.30;;;10.30;99.90;;;;;;5073669;28;20168;-79
2021/11/05 00:40:31;;;;;;;25.47;19.27;;;10.30;99.90;;;;;;5074240;28;20250;-79
2021/11/05 00:42:57;;;;;;;25.17;20.00;;;10.30;99.90;;;;;;5092071;28;20658;-78
2021/11/05 00:45:23;;;;;;;25.70;20.90;;;10.30;99.90;;;;;;5073960;28;20180;-79
2021/11/05 00:47:49;;;;;;;23.40;19.53;;;10.30;99.90;;;;;;5091604;28;20171;-78
2021/11/05 00:50:14;;;;;;;27.30;19.37;;;10.40;99.90;;;;;;5066465;28;20538;-78
2021/11/05 00:52:40;;;;;;;26.63;21.93;;;10.40;99.90;;;;;;5055142;28;20648;-78
2021/11/05 00:55:08;;;;;;;25.47;19.43;;;10.40;99.90;;;;;;5058102;28;20197;-78
2021/11/05 00:57:34;;;;;;;25.38;20.10;;;10.40;99.90;;;;;;5053815;28;20581;-78
2021/11/05 00:59:59;;;;;;;24.80;19.33;;;10.50;99.90;;;;;;5054275;28;20172;-78
2021/11/05 01:02:25;;;;;;;27.70;21.63;;;10.50;99.90;;;;;;5072005;28;20667;-78
2021/11/05 01:04:51;;;;;;;23.40;19.10;;;10.50;99.90;;;;;;5073043;28;20559;-78
2021/11/05 01:07:17;;;;;;;26.60;18.37;;;10.60;99.90;;;;;;5053710;28;20175;-78
2021/11/05 01:09:43;;;;;;;28.47;22.07;;;10.60;99.90;;;;;;5072377;28;20168;-78
2021/11/05 01:12:09;;;;;;;26.10;20.00;;;10.60;99.90;;;;;;5072622;28;20176;-78
2021/11/05 01:14:35;;;;;;;25.48;20.73;;;10.70;99.90;;;;;;5072494;28;20204;-78
2021/11/05 01:17:01;;;;;;;25.90;20.40;;;10.70;99.90;;;;;;5072916;28;20183;-78
2021/11/05 01:19:27;;;;;;;25.52;19.45;;;10.70;99.90;;;;;;5054524;28;20164;-78
2021/11/05 01:21:53;;;;;;;27.50;21.67;;;10.80;99.90;;;;;;5054486;28;20714;-79
2021/11/05 01:24:19;;;;;;;27.87;21.47;;;10.80;99.90;;;;;;5072250;28;20180;-78
2021/11/05 01:26:44;;;;;;;26.73;20.40;;;10.80;99.90;;;;;;5072339;28;20555;-79
2021/11/05 01:29:10;;;;;;;24.57;19.83;;;10.80;99.90;;;;;;5071557;28;20207;-78
2021/11/05 01:31:36;;;;;;;25.33;20.83;;;10.90;99.90;;;;;;5043006;28;20283;-78
2021/11/05 01:34:04;;;;;;;27.30;19.80;;;10.90;99.90;;;;;;5053502;28;20591;-79
2021/11/05 01:36:30;;;;;;;26.65;20.92;;;10.90;99.90;;;;;;5053347;28;20172;-78
2021/11/05 01:38:56;;;;;;;28.10;21.37;;;11.00;99.90;;;;;;5036580;28;20176;-79
2021/11/05 01:41:21;;;;;;;23.97;19.80;;;10.90;99.90;;;;;;5071292;28;20614;-79
2021/11/05 01:43:48;;;;;;;28.17;20.50;;;11.00;99.90;;;;;;5071017;28;20184;-78
2021/11/05 01:46:17;;;;;;;23.33;20.27;;;11.00;99.90;;;;;;5072222;28;20269;-79
2021/11/05 01:48:43;;;;;;;24.58;21.60;;;11.00;99.90;;;;;;5075353;28;20171;-78
2021/11/05 01:51:09;;;;;;;25.93;20.30;;;11.10;99.90;;;;;;5056969;28;20625;-78
2021/11/05 01:53:34;;;;;;;26.73;21.17;;;11.10;99.90;;;;;;5074945;28;20199;-79
2021/11/05 01:56:01;;;;;;;28.90;22.70;;;11.10;99.90;;;;;;5074396;28;20195;-78
2021/11/05 01:58:27;;;;;;;29.13;22.13;;;11.10;99.90;;;;;;5040166;28;21002;-79
2021/11/05 02:00:53;;;;;;;27.40;21.40;;;11.10;99.90;;;;;;5074796;28;20192;-79
2021/11/05 02:03:18;;;;;;;28.90;22.20;;;11.10;99.90;;;;;;5074762;28;20969;-79
2021/11/05 02:05:46;;;;;;;28.77;22.47;;;11.20;99.90;;;;;;5056460;28;20586;-78
2021/11/05 02:08:13;;;;;;;27.77;22.02;;;11.20;99.90;;;;;;5061785;28;20512;-79
2021/11/05 02:10:39;;;;;;;26.25;20.20;;;11.20;99.90;;;;;;5056769;28;20172;-79
2021/11/05 02:13:05;;;;;;;26.83;19.88;;;11.20;99.90;;;;;;5040026;28;20546;-79
2021/11/05 02:15:30;;;;;;;29.13;22.30;;;11.30;99.90;;;;;;5074445;28;20175;-79
2021/11/05 02:17:56;;;;;;;29.47;22.53;;;11.30;99.90;;;;;;5074498;28;20570;-78
2021/11/05 02:20:25;;;;;;;31.17;24.17;;;11.30;99.90;;;;;;5074376;28;20573;-78
2021/11/05 02:22:52;;;;;;;32.63;22.30;;;11.30;99.90;;;;;;5077829;28;20723;-78
2021/11/05 02:25:19;;;;;;;33.05;23.60;;;11.30;99.90;;;;;;5089204;28;20173;-78
2021/11/05 02:27:45;;;;;;;27.58;22.40;;;11.30;99.90;;;;;;5072270;28;20190;-79
2021/11/05 02:30:11;;;;;;;28.00;23.10;;;11.30;99.90;;;;;;5091353;28;20164;-78
2021/11/05 02:32:40;;;;;;;33.42;23.83;;;11.30;99.90;;;;;;5089367;28;20180;-78
2021/11/05 02:35:06;;;;;;;27.60;22.50;;;11.30;99.90;;;;;;5072152;28;20758;-79
2021/11/05 02:37:32;;;;;;;30.60;23.97;;;11.30;99.90;;;;;;5088541;28;20172;-77
2021/11/05 02:39:58;;;;;;;34.22;25.25;;;11.30;99.90;;;;;;5040676;28;21014;-79
2021/11/05 02:42:24;;;;;;;37.13;23.33;;;11.30;99.90;;;;;;5074745;28;20291;-79
2021/11/05 02:44:50;;;;;;;34.40;24.70;;;11.30;99.90;;;;;;5079889;28;20215;-80
2021/11/05 02:47:26;;;;;;;33.80;25.73;;;11.30;99.90;;;;;;5040253;28;20176;-79
2021/11/05 02:50:11;;;;;;;32.78;24.67;;;11.30;99.90;;;;;;5041127;28;20199;-78
2021/11/05 02:52:37;;;;;;;37.80;25.83;;;11.30;99.90;;;;;;5077795;28;20199;-81
2021/11/05 02:55:04;;;;;;;38.47;28.17;;;11.30;99.90;;;;;;5077198;28;20168;-82
2021/11/05 02:57:33;;;;;;;32.85;25.08;;;11.30;99.90;;;;;;5058824;28;20570;-81
2021/11/05 02:59:58;;;;;;;38.10;26.77;;;11.30;99.90;;;;;;5093005;28;20203;-82
2021/11/05 03:02:24;;;;;;;33.80;26.10;;;11.30;99.90;;;;;;5058462;28;20196;-81
2021/11/05 03:04:51;;;;;;;37.50;27.80;;;11.30;99.90;;;;;;5091308;28;20198;-82
2021/11/05 03:07:16;;;;;;;30.48;23.95;;;11.30;99.90;;;;;;5073661;28;20582;-82
2021/11/05 03:09:42;;;;;;;33.77;26.93;;;11.30;99.90;;;;;;5071870;28;20628;-82
2021/11/05 03:12:09;;;;;;;36.47;26.23;;;11.30;99.90;;;;;;5089294;28;20176;-83
2021/11/05 03:14:38;;;;;;;35.47;26.98;;;11.30;99.90;;;;;;5077949;28;20250;-82
2021/11/05 03:17:04;;;;;;;36.90;27.45;;;11.30;99.90;;;;;;5079095;28;20213;-82
2021/11/05 03:19:30;;;;;;;32.10;24.75;;;11.30;99.90;;;;;;5076934;28;20196;-82
2021/11/05 03:21:56;;;;;;;37.93;24.80;;;11.30;99.90;;;;;;5062141;28;20211;-83
2021/11/05 03:24:22;;;;;;;29.07;21.30;;;11.30;99.90;;;;;;5077771;28;20625;-82
2021/11/05 03:26:48;;;;;;;32.23;24.60;;;11.30;99.90;;;;;;5083560;28;20196;-82
2021/11/05 03:29:14;;;;;;;30.05;24.60;;;11.30;99.90;;;;;;5080716;28;20609;-82
2021/11/05 03:31:40;;;;;;;33.63;25.87;;;11.30;99.90;;;;;;5076641;28;20222;-82
2021/11/05 03:34:05;;;;;;;30.23;22.50;;;11.30;99.90;;;;;;5080294;28;20285;-82
2021/11/05 03:36:31;;;;;;;32.80;23.70;;;11.40;99.90;;;;;;5057640;28;20180;-82
2021/11/05 03:38:57;;;;;;;29.07;21.70;;;11.40;99.90;;;;;;5075867;28;20168;-82
2021/11/05 03:41:23;;;;;;;28.48;20.95;;;11.40;99.90;;;;;;5076550;28;20603;-82
2021/11/05 03:43:49;;;;;;;26.20;18.17;;;11.40;99.90;;;;;;5061190;28;20259;-82
2021/11/05 03:46:15;;;;;;;20.43;17.37;;;11.30;99.90;;;;;;5077962;28;20542;-82
2021/11/05 03:48:40;;;;;;;20.70;15.47;;;11.30;99.90;;;;;;5060729;28;20172;-82
2021/11/05 03:51:07;;;;;;;20.17;16.33;;;11.30;99.90;;;;;;5078617;28;20211;-80
2021/11/05 03:53:33;;;;;;;23.38;16.42;;;11.30;99.90;;;;;;5061523;28;20208;-81
2021/11/05 03:55:59;;;;;;;22.60;15.97;;;11.30;99.90;;;;;;5078304;28;20185;-82
2021/11/05 03:58:25;;;;;;;20.02;15.05;;;11.30;99.90;;;;;;5078850;28;20575;-82
2021/11/05 04:00:52;;;;;;;20.75;16.27;;;11.30;99.90;;;;;;5081576;28;20199;-81
2021/11/05 04:03:19;;;;;;;21.65;15.82;;;11.30;99.90;;;;;;5080148;28;20190;-81
2021/11/05 04:05:45;;;;;;;20.25;15.85;;;11.40;99.90;;;;;;5066603;28;20176;-81
2021/11/05 04:08:10;;;;;;;19.13;15.70;;;11.30;99.90;;;;;;5046292;28;20231;-81
2021/11/05 04:10:36;;;;;;;21.27;16.10;;;11.30;99.90;;;;;;5061670;28;20179;-82
2021/11/05 04:13:02;;;;;;;20.60;14.97;;;11.40;99.90;;;;;;5053428;28;20219;-82
2021/11/05 04:15:28;;;;;;;18.53;15.00;;;11.40;99.90;;;;;;5085851;28;20593;-82
2021/11/05 04:17:54;;;;;;;21.08;16.05;;;11.30;99.90;;;;;;5086168;28;20601;-82
2021/11/05 04:20:20;;;;;;;26.80;18.73;;;11.30;99.90;;;;;;5085388;28;20181;-82
2021/11/05 04:22:46;;;;;;;22.50;17.10;;;11.40;99.90;;;;;;5061402;28;20243;-82
2021/11/05 04:25:13;;;;;;;23.25;17.73;;;11.40;99.90;;;;;;5024448;28;20610;-80
2021/11/05 04:27:39;;;;;;;23.95;17.55;;;11.40;99.90;;;;;;4871065;28;20191;-82
2021/11/05 04:30:07;;;;;;;28.87;18.80;;;11.30;99.90;;;;;;4848377;29;20184;-82
2021/11/05 04:32:33;;;;;;;27.27;17.75;;;11.40;99.90;;;;;;4855858;29;20588;-82
2021/11/05 04:34:59;;;;;;;23.30;16.90;;;11.40;99.90;;;;;;4852247;29;20176;-82
2021/11/05 04:37:24;;;;;;;25.43;18.37;;;11.40;99.90;;;;;;4851868;29;20164;-82
2021/11/05 04:39:50;;;;;;;24.77;16.77;;;11.40;99.90;;;;;;4866512;29;20589;-82
2021/11/05 04:42:16;;;;;;;23.13;17.40;;;11.40;99.90;;;;;;4852122;29;20204;-82
2021/11/05 04:44:44;;;;;;;21.75;16.05;;;11.40;99.90;;;;;;4851023;29;20300;-82
2021/11/05 04:47:10;;;;;;;20.87;15.37;;;11.50;99.90;;;;;;4863065;29;20714;-82
2021/11/05 04:49:36;;;;;;;22.47;16.13;;;11.40;99.90;;;;;;4848616;29;20212;-82
2021/11/05 04:52:03;;;;;;;23.42;16.05;;;11.40;99.90;;;;;;4849109;29;20556;-82
2021/11/05 04:54:29;;;;;;;20.80;16.52;;;11.50;99.90;;;;;;4862897;29;20571;-82
2021/11/05 04:56:54;;;;;;;21.03;16.07;;;11.40;99.90;;;;;;4857819;29;20191;-82
2021/11/05 04:59:20;;;;;;;20.37;15.67;;;11.40;99.90;;;;;;4844646;29;20180;-82
2021/11/05 05:01:47;;;;;;;21.50;14.53;;;11.50;99.90;;;;;;4873764;29;20208;-82
2021/11/05 05:04:13;;;;;;;21.52;15.63;;;11.40;99.90;;;;;;4861836;29;20203;-82
2021/11/05 05:06:39;;;;;;;17.17;12.68;;;11.40;99.90;;;;;;4872478;29;20204;-84
2021/11/05 05:09:05;;;;;;;18.20;12.93;;;11.50;99.90;;;;;;4867922;29;20181;-83
2021/11/05 05:11:31;;;;;;;21.27;13.50;;;11.50;99.90;;;;;;4847491;29;20566;-82
2021/11/05 05:13:57;;;;;;;18.97;14.33;;;11.40;99.90;;;;;;4860840;29;20629;-82
2021/11/05 05:16:23;;;;;;;17.90;12.70;;;11.50;99.90;;;;;;4873287;29;20609;-81
2021/11/05 05:18:49;;;;;;;16.83;12.37;;;11.40;99.90;;;;;;4862128;29;20530;-81
2021/11/05 05:21:15;;;;;;;14.47;11.17;;;11.40;99.90;;;;;;4856194;29;20673;-81
2021/11/05 05:23:41;;;;;;;18.42;14.05;;;11.40;99.90;;;;;;4857995;29;20203;-81
2021/11/05 05:26:07;;;;;;;22.07;13.13;;;11.40;99.90;;;;;;4822890;29;1080290;-82
2021/11/05 05:28:33;;;;;;;20.23;14.48;;;11.40;99.90;;;;;;4925644;29;20190;-82
2021/11/05 05:31:03;;;;;;;22.63;13.77;;;11.40;99.90;;;;;;4885275;29;20553;-82
2021/11/05 05:33:30;;;;;;;24.17;15.00;;;11.40;99.90;;;;;;4897491;29;20210;-82
2021/11/05 05:35:56;;;;;;;24.05;15.10;;;11.40;99.90;;;;;;4881562;29;20182;-82
2021/11/05 05:38:22;;;;;;;23.03;14.60;;;11.40;99.90;;;;;;4882759;29;20187;-82
2021/11/05 05:40:48;;;;;;;23.20;15.20;;;11.40;99.90;;;;;;4887210;29;20218;-83
2021/11/05 05:43:13;;;;;;;26.63;15.07;;;11.40;99.90;;;;;;4882667;29;20603;-81
2021/11/05 05:45:39;;;;;;;28.10;17.43;;;11.40;99.90;;;;;;4881966;29;20167;-81
2021/11/05 05:48:05;;;;;;;23.57;15.67;;;11.40;99.90;;;;;;4882116;29;20604;-82
2021/11/05 05:50:31;;;;;;;24.20;15.90;;;11.40;99.90;;;;;;4885378;29;20567;-81
2021/11/05 05:52:57;;;;;;;23.90;15.40;;;11.40;99.90;;;;;;4900909;29;20622;-83
2021/11/05 05:55:26;;;;;;;22.07;15.63;;;11.40;99.90;;;;;;4887757;29;20627;-82
2021/11/05 05:57:52;;;;;;;23.85;15.32;;;11.40;99.90;;;;;;4923836;29;20575;-82
2021/11/05 06:00:23;;;;;;;23.70;16.10;;;11.40;99.90;;;;;;4900715;29;20174;-82
2021/11/05 06:02:49;;;;;;;22.85;15.82;;;11.40;99.90;;;;;;4927213;29;20219;-83
2021/11/05 06:05:15;;;;;;;21.87;15.67;;;11.40;99.90;;;;;;4919240;29;20170;-83
2021/11/05 06:07:41;;;;;;;22.75;15.95;;;11.40;99.90;;;;;;4918438;29;20189;-82
2021/11/05 06:10:07;;;;;;;24.80;16.77;;;11.40;99.90;;;;;;4917793;29;20175;-83
2021/11/05 06:12:33;;;;;;;23.42;17.65;;;11.40;99.90;;;;;;4916064;29;20590;-83
2021/11/05 06:14:59;;;;;;;22.67;16.40;;;11.40;99.90;;;;;;4920305;29;20220;-83
2021/11/05 06:17:25;;;;;;;26.00;18.63;;;11.40;99.90;;;;;;4917344;29;20186;-83
2021/11/05 06:19:51;;;;;;;24.50;17.27;;;11.40;99.90;;;;;;4912342;29;20255;-83
2021/11/05 06:22:18;;;;;;;25.60;17.17;;;11.40;99.90;;;;;;4934906;29;20655;-82
2021/11/05 06:24:45;;;;;;;19.77;17.23;;;11.40;99.90;;;;;;4913041;29;20606;-83
2021/11/05 06:27:12;;;;;;;18.40;15.70;;;11.40;99.90;;;;;;4954986;28;20184;-84
2021/11/05 06:29:38;;;;;;;20.67;17.40;;;11.40;99.90;;;;;;4951377;29;20237;-83
2021/11/05 06:32:04;;;;;;;19.85;16.27;;;11.40;99.90;;;;;;4944091;29;20188;-83
2021/11/05 06:34:30;;;;;;;19.77;17.73;;;11.40;99.90;;;;;;4937202;29;20204;-82
2021/11/05 06:36:56;;;;;;;18.77;16.73;;;11.30;99.90;;;;;;4936618;29;20169;-82
2021/11/05 06:39:21;;;;;;;21.47;18.00;;;11.30;99.90;;;;;;4936934;29;20245;-83
2021/11/05 06:41:47;;;;;;;19.20;17.20;;;11.30;99.90;;;;;;4939119;29;21441;-83
2021/11/05 06:44:13;;;;;;;19.50;16.50;;;11.30;99.90;;;;;;4937880;29;20189;-82
2021/11/05 06:46:39;;;;;;;20.53;18.33;;;11.30;99.90;;;;;;4937716;29;20637;-84
2021/11/05 06:49:05;;;;;;;24.05;19.40;;;11.30;99.90;;;;;;4937674;29;20199;-83
2021/11/05 06:51:31;;;;;;;23.60;19.53;;;11.30;99.90;;;;;;4920262;29;20649;-83
2021/11/05 06:53:57;;;;;;;28.43;20.83;;;11.20;99.90;;;;;;4938386;29;20600;-82
2021/11/05 06:56:23;;;;;;;25.60;21.60;;;11.20;99.90;;;;;;4941313;29;20584;-83
2021/11/05 06:58:50;;;;;;;24.13;20.33;;;11.20;99.90;;;;;;4936503;29;20172;-83
2021/11/05 07:01:25;;;;;;;22.20;18.95;;;11.20;99.90;;;;;;4941804;29;20647;-83
2021/11/05 07:03:51;;;;;;;25.80;20.70;;;11.20;99.90;;;;;;4943150;29;20689;-84
2021/11/05 07:06:17;;;;;;;23.83;18.40;;;11.10;99.90;;;;;;4943388;29;20325;-82
2021/11/05 07:08:42;;;;;;;27.40;21.23;;;11.10;99.90;;;;;;4941348;29;20583;-83
2021/11/05 07:11:08;;;;;;;22.80;20.00;;;11.10;99.90;;;;;;4943069;29;20938;-83
2021/11/05 07:13:34;;;;;;;23.80;21.20;;;11.10;99.90;;;;;;4942180;29;20193;-83
2021/11/05 07:16:00;;;;;;;22.97;20.57;;;11.10;99.90;;;;;;4941725;29;20181;-83
2021/11/05 07:18:26;;;;;;;23.77;20.13;;;11.10;99.90;;;;;;4938569;29;20664;-82
2021/11/05 07:20:52;;;;;;;24.37;21.17;;;11.10;99.90;;;;;;4936802;29;20617;-82
2021/11/05 07:23:18;;;;;;;23.65;21.17;;;11.10;99.90;;;;;;4936538;29;21181;-81
2021/11/05 07:25:44;;;;;;;21.40;19.20;;;11.10;99.90;;;;;;4936133;29;20169;-80
2021/11/05 07:28:11;;;;;;;23.80;21.25;;;11.10;99.90;;;;;;4983417;28;20170;-81
2021/11/05 07:30:37;;;;;;;27.75;21.00;;;11.10;99.90;;;;;;5013855;28;20508;-81
2021/11/05 07:33:03;;;;;;;24.63;21.93;;;11.10;99.90;;;;;;4979536;28;20197;-80
2021/11/05 07:35:29;;;;;;;24.80;21.42;;;11.10;99.90;;;;;;5013648;28;20570;-80
2021/11/05 07:37:55;;;;;;;27.90;22.90;;;11.10;99.90;;;;;;4995426;28;20166;-81
2021/11/05 07:40:21;;;;;;;24.05;21.42;;;11.10;99.90;;;;;;5014325;28;20521;-81
2021/11/05 07:42:47;;;;;;;28.90;22.92;;;11.10;99.90;;;;;;4999807;28;20241;-81
2021/11/05 07:45:16;;;;;;;24.57;21.90;;;11.20;99.90;;;;;;5014209;28;20249;-81
2021/11/05 07:47:43;;;;;;;23.20;19.88;;;11.20;99.90;;;;;;5012891;28;20230;-82
2021/11/05 07:50:10;;;;;;;22.67;20.25;;;11.20;99.90;;;;;;5013560;28;20176;-82
2021/11/05 07:52:36;;;;;;;27.35;22.35;;;11.20;99.90;;;;;;4995168;28;20218;-82
2021/11/05 07:55:04;;;;;;;27.75;21.90;;;11.20;99.90;;;;;;4995766;28;20176;-82
2021/11/05 07:57:30;;;;;;;28.17;21.08;;;11.20;99.90;;;;;;5012430;28;20178;-82
2021/11/05 07:59:58;;;;;;;25.90;22.30;;;11.20;99.90;;;;;;5013372;28;20170;-82
2021/11/05 08:02:24;;;;;;;28.77;22.55;;;11.20;99.90;;;;;;4995690;28;20236;-82
2021/11/05 08:04:50;;;;;;;28.60;23.73;;;11.20;99.90;;;;;;5012208;28;20183;-82
2021/11/05 08:07:20;;;;;;;27.27;22.57;;;11.20;99.90;;;;;;4996162;28;20277;-83
2021/11/05 08:09:46;;;;;;;32.38;22.40;;;11.20;99.90;;;;;;5014795;28;20552;-83
2021/11/05 08:12:12;;;;;;;26.20;22.95;;;11.20;99.90;;;;;;5011674;28;20247;-81
2021/11/05 08:14:39;;;;;;;25.73;21.73;;;11.30;99.90;;;;;;4995213;28;20654;-82
2021/11/05 08:17:05;;;;;;;28.42;22.42;;;11.30;99.90;;;;;;4995190;28;20209;-82
2021/11/05 08:19:31;;;;;;;31.25;23.92;;;11.30;99.90;;;;;;5017124;28;20174;-83
2021/11/05 08:21:57;;;;;;;27.90;21.80;;;11.40;99.90;;;;;;4993690;28;20195;-81
2021/11/05 08:24:23;;;;;;;26.60;20.55;;;11.40;99.90;;;;;;5012023;28;20205;-81
2021/11/05 08:26:49;;;;;;;24.47;19.57;;;11.50;99.90;;;;;;4997870;28;20190;-81
2021/11/05 08:29:16;;;;;;;24.33;19.20;;;11.50;99.90;;;;;;4994865;28;20963;-81
2021/11/05 08:31:42;;;;;;;22.50;19.83;;;11.60;99.90;;;;;;4994906;28;20669;-81
2021/11/05 08:34:09;;;;;;;24.60;19.40;;;11.60;99.90;;;;;;5012244;28;20696;-82
2021/11/05 08:36:36;;;;;;;26.98;18.92;;;11.60;99.90;;;;;;5011901;28;20598;-81
2021/11/05 08:39:03;;;;;;;19.52;16.55;;;11.70;99.90;;;;;;5020701;28;20200;-81
2021/11/05 08:41:29;;;;;;;20.55;18.40;;;11.70;99.90;;;;;;5033580;28;20196;-80
2021/11/05 08:43:56;;;;;;;21.00;16.93;;;11.80;99.90;;;;;;5033401;28;20606;-81
2021/11/05 08:46:26;;;;;;;23.20;18.63;;;11.90;99.90;;;;;;5033397;28;20629;-81
2021/11/05 08:48:54;;;;;;;22.83;19.00;;;11.90;99.90;;;;;;5051506;28;20171;-81
2021/11/05 08:51:22;;;;;;;23.30;19.80;;;12.00;99.90;;;;;;5056096;28;20248;-81
2021/11/05 08:53:47;;;;;;;23.88;21.02;;;12.00;99.90;;;;;;5051376;28;20200;-80
2021/11/05 08:56:14;;;;;;;25.60;21.17;;;12.10;99.90;;;;;;5036663;28;20165;-81
2021/11/05 08:58:40;;;;;;;19.65;17.58;;;12.20;99.90;;;;;;5051603;28;20727;-81
2021/11/05 09:01:07;;;;;;;20.80;17.73;;;12.20;99.90;;;;;;5050248;28;20208;-81
2021/11/05 09:03:33;;;;;;;25.42;22.42;;;12.30;99.90;;;;;;5051432;28;20234;-83
2021/11/05 09:06:00;;;;;;;23.52;17.70;;;12.30;99.90;;;;;;5051234;28;20535;-82
2021/11/05 09:08:29;;;;;;;18.98;16.08;;;12.40;99.90;;;;;;5051173;28;20176;-81
2021/11/05 09:10:56;;;;;;;16.10;14.45;;;12.50;99.90;;;;;;5043795;28;20207;-81
2021/11/05 09:13:22;;;;;;;17.65;15.45;;;12.50;99.90;;;;;;5050978;28;20196;-82
2021/11/05 09:15:48;;;;;;;17.27;15.50;;;12.60;99.90;;;;;;5051551;28;20192;-81
2021/11/05 09:18:16;;;;;;;18.80;16.73;;;12.60;99.90;;;;;;5051962;28;20571;-81
2021/11/05 09:20:45;;;;;;;17.73;15.90;;;12.70;99.90;;;;;;5052705;28;20610;-81
2021/11/05 09:23:11;;;;;;;19.47;17.50;;;12.70;99.90;;;;;;5051474;28;20557;-81
2021/11/05 09:25:37;;;;;;;15.80;14.10;;;12.80;99.90;;;;;;5051686;28;20568;-81
2021/11/05 09:28:03;;;;;;;14.73;13.27;;;12.80;99.90;;;;;;5051149;28;20585;-80
2021/11/05 09:30:29;;;;;;;14.63;13.13;;;12.90;99.90;;;;;;5065510;28;20165;-80
2021/11/05 09:32:56;;;;;;;13.13;11.00;;;13.00;99.90;;;;;;5055603;28;20566;-82
2021/11/05 09:35:23;;;;;;;15.33;13.70;;;13.10;99.90;;;;;;5052720;28;20578;-82
2021/11/05 09:37:50;;;;;;;14.83;13.33;;;13.10;99.90;;;;;;5034777;28;20576;-82
2021/11/05 09:40:19;;;;;;;15.97;14.23;;;13.20;99.90;;;;;;5051907;28;20579;-81
2021/11/05 09:42:48;;;;;;;14.37;12.97;;;13.20;99.90;;;;;;5034552;28;20750;-80
2021/11/05 09:45:17;;;;;;;22.20;13.77;;;13.30;99.90;;;;;;5034318;28;20623;-80
2021/11/05 09:47:43;;;;;;;15.87;14.27;;;13.30;99.90;;;;;;5052169;28;20597;-81
2021/11/05 09:50:11;;;;;;;16.10;13.93;;;13.30;99.90;;;;;;5033071;28;20586;-82
2021/11/05 09:52:38;;;;;;;15.00;13.60;;;13.30;99.90;;;;;;5034198;28;21365;-84
2021/11/05 09:55:06;;;;;;;16.80;14.43;;;13.30;99.90;;;;;;5052908;28;20575;-83
2021/11/05 09:57:32;;;;;;;15.43;13.83;;;13.40;99.90;;;;;;5053178;28;20574;-80
2021/11/05 09:59:58;;;;;;;15.13;13.53;;;13.40;99.90;;;;;;5054256;28;20568;-81
2021/11/05 10:02:25;;;;;;;14.37;12.50;;;13.50;99.90;;;;;;5036047;28;20193;-82
2021/11/05 10:04:52;;;;;;;12.87;11.67;;;13.60;99.90;;;;;;5053393;28;21017;-82
2021/11/05 10:07:19;;;;;;;14.13;12.60;;;13.60;99.90;;;;;;5054177;28;20658;-81
2021/11/05 10:10:04;;;;;;;13.23;11.70;;;13.70;99.90;;;;;;5060838;28;20567;-83
2021/11/05 10:12:30;;;;;;;22.17;13.53;;;13.70;99.90;;;;;;5057436;28;20582;-82
2021/11/05 10:15:02;;;;;;;17.00;13.00;;;13.80;99.90;;;;;;5056176;28;21115;-81
2021/11/05 10:17:32;;;;;;;15.80;13.33;;;13.80;99.90;;;;;;5021302;28;20630;-82
2021/11/05 10:20:01;;;;;;;13.93;12.20;;;13.90;99.90;;;;;;5039273;28;20568;-82
2021/11/05 10:22:49;;;;;;;13.00;10.97;;;14.00;99.90;;;;;;5055936;28;20607;-83
2021/11/05 10:25:30;;;;;;;14.50;10.93;;;14.20;99.90;;;;;;5032418;28;20573;-83
2021/11/05 10:28:00;;;;;;;15.10;12.10;;;14.40;99.90;;;;;;5001030;28;20757;-83
2021/11/05 10:30:28;;;;;;;14.17;11.73;;;14.60;99.90;;;;;;5017853;28;20177;-84
2021/11/05 10:33:00;;;;;;;11.27;10.20;;;14.70;99.90;;;;;;5017721;28;20704;-85
2021/11/05 10:35:28;;;;;;;9.60;8.70;;;14.90;99.90;;;;;;5002071;28;20611;-83
2021/11/05 10:38:00;;;;;;;11.50;8.90;;;15.10;99.90;;;;;;5037463;28;20619;-84
2021/11/05 10:40:41;;;;;;;9.27;8.37;;;15.30;99.90;;;;;;5019449;28;20692;-82
2021/11/05 10:43:08;;;;;;;8.97;7.40;;;15.50;99.90;;;;;;5017725;28;20615;-83
2021/11/05 10:45:37;;;;;;;9.87;8.87;;;15.70;99.90;;;;;;5017104;28;20612;-83
2021/11/05 10:48:09;;;;;;;9.33;8.17;;;15.80;99.90;;;;;;5021918;28;20608;-82
2021/11/05 10:50:45;;;;;;;9.80;8.10;;;15.90;99.90;;;;;;5034408;28;20576;-82
2021/11/05 10:53:14;;;;;;;10.50;7.20;;;16.00;99.90;;;;;;5016244;28;20598;-82
2021/11/05 10:55:49;;;;;;;7.60;6.80;;;16.10;99.90;;;;;;5016303;28;21143;-83
2021/11/05 10:58:31;;;;;;;7.93;7.13;;;16.10;99.90;;;;;;5034663;28;20968;-83
2021/11/05 11:01:08;;;;;;;9.40;6.50;;;16.20;99.90;;;;;;5034731;28;20608;-82
2021/11/05 11:03:43;;;;;;;8.10;6.80;;;16.30;99.90;;;;;;5016595;28;20600;-83
2021/11/05 11:06:15;;;;;;;12.23;7.10;;;16.50;99.90;;;;;;5015915;28;20916;-81
2021/11/05 11:08:43;;;;;;;8.03;6.67;;;16.60;99.90;;;;;;5016467;28;20565;-82
2021/11/05 11:11:29;;;;;;;10.93;7.30;;;16.60;99.90;;;;;;5016395;28;20676;-82
2021/11/05 11:14:00;;;;;;;10.00;6.90;;;16.70;99.90;;;;;;5058488;23;20592;-80
2021/11/05 11:16:29;;;;;;;14.00;9.27;;;16.70;99.90;;;;;;5022690;28;20980;-81
2021/11/05 11:19:04;;;;;;;8.37;7.43;;;16.70;99.90;;;;;;5030239;28;20577;-81
2021/11/05 11:21:33;;;;;;;8.27;6.90;;;16.70;99.90;;;;;;5048799;28;20615;-80
2021/11/05 11:24:03;;;;;;;6.67;6.00;;;16.80;99.90;;;;;;5049265;28;20597;-80
2021/11/05 11:26:32;;;;;;;8.47;5.73;;;16.80;99.90;;;;;;5047364;28;20607;-80
2021/11/05 11:28:58;;;;;;;11.70;6.40;;;16.80;99.90;;;;;;5037869;28;20564;-80
2021/11/05 11:31:25;;;;;;;7.03;5.60;;;16.70;99.90;;;;;;5046471;28;20577;-80
2021/11/05 11:33:51;;;;;;;7.40;6.17;;;16.60;99.90;;;;;;5028685;28;20565;-80
2021/11/05 11:36:20;;;;;;;7.10;5.83;;;16.60;99.90;;;;;;5046124;28;20600;-80
2021/11/05 11:38:50;;;;;;;6.70;4.87;;;16.50;99.90;;;;;;5043783;28;20588;-80
2021/11/05 11:41:17;;;;;;;7.50;5.50;;;16.40;99.90;;;;;;5041236;28;20620;-80
2021/11/05 11:43:43;;;;;;;7.27;5.60;;;16.40;99.90;;;;;;5005849;28;20603;-80
2021/11/05 11:46:09;;;;;;;6.47;5.60;;;16.40;99.90;;;;;;5039559;28;20561;-80
2021/11/05 11:48:38;;;;;;;7.03;6.30;;;16.40;99.90;;;;;;5052971;28;20565;-80
2021/11/05 11:51:29;;;;;;;7.90;5.87;;;16.30;99.90;;;;;;5048597;28;20184;-80
2021/11/05 11:54:12;;;;;;;6.97;5.37;;;16.30;99.90;;;;;;5055597;28;20599;-80
2021/11/05 11:56:40;;;;;;;5.77;5.20;;;16.20;99.90;;;;;;5038321;28;20660;-80
2021/11/05 11:59:17;;;;;;;9.20;7.30;;;16.10;99.90;;;;;;5036039;28;20607;-80
2021/11/05 12:01:46;;;;;;;6.17;4.97;;;16.10;99.90;;;;;;5051125;28;20981;-81
2021/11/05 12:04:17;;;;;;;9.87;5.67;;;15.90;99.90;;;;;;5052133;28;20708;-81
2021/11/05 12:06:46;;;;;;;8.50;5.80;;;15.80;99.90;;;;;;5053108;28;20572;-80
2021/11/05 12:09:35;;;;;;;8.87;5.47;;;15.70;99.90;;;;;;5030945;28;21154;-80
2021/11/05 12:12:19;;;;;;;7.23;5.87;;;15.60;99.90;;;;;;5032665;28;20565;-80
2021/11/05 12:15:02;;;;;;;8.80;6.13;;;15.60;99.90;;;;;;5025609;28;20655;-81
2021/11/05 12:17:33;;;;;;;7.00;5.37;;;15.60;99.90;;;;;;5028362;28;20577;-81
2021/11/05 12:20:02;;;;;;;6.93;5.50;;;15.60;99.90;;;;;;5028728;28;20577;-80
2021/11/05 12:22:29;;;;;;;7.20;5.50;;;15.60;99.90;;;;;;5029515;28;20632;-80
2021/11/05 12:25:19;;;;;;;8.73;6.17;;;15.60;99.90;;;;;;5044529;28;20605;-80
2021/11/05 12:28:23;;;;;;;8.73;4.93;;;15.70;99.90;;;;;;5022143;28;20565;-80
2021/11/05 12:30:52;;;;;;;8.53;4.80;;;15.70;99.90;;;;;;4987118;28;20638;-80
2021/11/05 12:33:34;;;;;;;8.20;5.63;;;15.70;99.90;;;;;;4988313;28;20663;-81